Terminal Aerodrome Forecast
Issued by NWS

Home | Current Version | Previous Version | Text Only | Print | Product List | Glossary On
Versions: 1 2 3 4 5 6 7 8 9 10 11 12 13 14 15 16 17 18 19 20 21 22
000
FTUS41 KBOX 301451 AAA
TAFACK
TAF AMD
KACK 301451Z 3015/3112 02007KT P6SM BKN010
     FM301600 05007KT P6SM SCT010 SCT250
     FM301800 08007KT P6SM SCT250
     FM302200 12005KT P6SM SCT003
     FM310000 14005KT 2SM BR SCT003
     FM310300 15004KT 5SM BR BKN008
     FM310600 16004KT 5SM BR BKN001
     FM311000 12006KT 3SM BR BKN020=

USA.gov is the U.S. government's official web portal to all federal, state and local government web resources and services.